Colfax, California
Current Conditions -  °F | °C
As of 9:55 AM on Sunday 21 Dec 2014 (Local Time) from KGOO Reporting Station
Overcast Overcast  
Wind Chill: 50°   Ceiling: 100
Heat Index: 50°   Visibility: 0.25mi
Dew Point: 50°   Wind: 9mph
Humidity: 100%   Direction: 130°SE
Pressure: 30.31"   Gusts: NA
Location:  39.1°N, 120.95°W
Report Text: KGOO 211755Z AUTO 13008KT 1/4SM OVC001 10/10 A3031 RMK AO1
Loading
Personal Weather Stations






























Interactive Weather Map New forecast layout! Learn more

10-Day Weather Forecast

Advertisements
Track Severe Weather on mobile